Time;durP1;ratioP1;P1;durP2;ratioP2;P2;SDS_P1;SDS_P2;PMS_P1;PMS_P2;Temp;Humidity;BMP_temperature;BMP_pressure;BME280_temperature;BME280_humidity;BME280_pressure;Samples;Min_cycle;Max_cycle;Signal;HPM_P1;HPM_P2
2023/07/04 00:02:13;;;;;;;3.63;1.65;;;18.20;88.20;;;18.58;80.59;100623.97;5219285;28;20041;-48
2023/07/04 00:04:48;;;;;;;2.63;1.38;;;18.20;88.40;;;18.55;80.91;100623.09;5219848;28;20053;-48
2023/07/04 00:07:22;;;;;;;5.25;1.65;;;18.20;88.70;;;18.53;80.88;100622.22;5219545;28;20037;-48
2023/07/04 00:09:55;;;;;;;2.30;1.15;;;18.10;88.70;;;18.50;81.34;100625.72;5219719;28;20041;-48
2023/07/04 00:12:27;;;;;;;3.67;1.50;;;18.10;89.00;;;18.47;81.66;100625.75;5220374;28;20041;-48
2023/07/04 00:15:00;;;;;;;2.50;1.23;;;18.10;89.30;;;18.44;81.49;100625.72;5219653;28;20048;-48
2023/07/04 00:17:32;;;;;;;4.38;1.35;;;18.10;89.40;;;18.41;81.57;100626.63;5219740;28;20041;-47
2023/07/04 00:20:06;;;;;;;5.25;1.63;;;18.00;89.40;;;18.38;81.88;100626.59;5219667;28;20045;-48
2023/07/04 00:22:40;;;;;;;2.40;1.40;;;18.00;89.60;;;18.37;81.79;100623.97;5219645;28;20687;-48
2023/07/04 00:25:12;;;;;;;3.70;1.42;;;18.00;89.60;;;18.33;82.08;100630.13;5220948;28;20522;-48
2023/07/04 00:27:46;;;;;;;3.63;1.48;;;18.00;90.30;;;18.31;82.18;100621.31;5219626;28;20538;-47
2023/07/04 00:30:20;;;;;;;2.80;1.38;;;17.90;90.00;;;18.28;82.10;100618.69;5219444;28;20045;-48
2023/07/04 00:32:52;;;;;;;3.40;1.52;;;17.90;90.00;;;18.27;82.17;100620.47;5221835;28;20077;-48
2023/07/04 00:35:25;;;;;;;1.30;1.08;;;17.90;90.00;;;18.26;82.50;100625.75;5223791;28;20048;-48
2023/07/04 00:37:59;;;;;;;3.42;1.25;;;17.90;90.20;;;18.25;82.48;100608.13;5224127;28;20136;-48
2023/07/04 00:40:31;;;;;;;3.35;1.30;;;17.90;90.20;;;18.21;82.45;100604.63;5223459;28;20143;-48
2023/07/04 00:43:04;;;;;;;3.97;1.63;;;17.90;90.20;;;18.20;82.63;100615.19;5223790;28;20154;-49
2023/07/04 00:45:42;;;;;;;5.63;1.83;;;17.90;90.30;;;18.17;82.79;100614.28;5224251;28;20151;-49
2023/07/04 00:48:17;;;;;;;3.13;1.40;;;17.80;90.40;;;18.15;83.19;100628.34;5221608;28;20044;-48
2023/07/04 00:50:49;;;;;;;;;;;17.80;90.50;;;18.13;83.48;100625.72;5222290;28;20060;-48
2023/07/04 00:53:23;;;;;;;3.72;1.48;;;17.80;90.60;;;18.11;83.27;100611.63;5223089;28;20179;-49
2023/07/04 00:55:58;;;;;;;3.03;1.50;;;17.70;90.60;;;18.09;83.67;100616.03;5222525;28;20045;-48
2023/07/04 00:58:35;;;;;;;4.38;1.35;;;17.70;90.70;;;18.08;83.56;100622.19;5222824;28;20049;-49
2023/07/04 01:01:10;;;;;;;3.95;1.40;;;17.70;90.70;;;18.07;83.77;100623.06;5222060;28;20139;-48
2023/07/04 01:03:43;;;;;;;3.45;1.45;;;17.70;90.90;;;18.07;84.17;100624.84;5223877;28;20152;-48
2023/07/04 01:06:24;;;;;;;3.65;1.60;;;17.70;91.00;;;18.05;84.19;100627.44;5223064;28;20052;-48
2023/07/04 01:09:04;;;;;;;4.57;1.48;;;17.70;91.10;;;18.02;84.64;100627.47;5221424;28;20430;-49
2023/07/04 01:11:42;;;;;;;3.30;1.35;;;17.70;91.20;;;17.99;84.77;100627.44;5220110;28;20048;-48
2023/07/04 01:14:21;;;;;;;5.05;1.95;;;17.70;91.30;;;17.99;84.83;100631.81;5221431;28;20464;-49
2023/07/04 01:16:56;;;;;;;5.10;1.80;;;17.70;91.40;;;17.98;84.99;100625.69;5223623;28;20045;-48
2023/07/04 01:19:35;;;;;;;3.83;1.50;;;17.60;91.50;;;17.99;85.25;100626.56;5215278;28;20073;-48
2023/07/04 01:22:24;;;;;;;3.55;1.48;;;17.60;91.60;;;17.98;85.23;100620.41;5220444;28;20052;-48
2023/07/04 01:25:10;;;;;;;6.03;1.90;;;17.60;91.60;;;17.98;85.18;100625.69;5222001;28;20041;-49
2023/07/04 01:27:45;;;;;;;2.20;1.48;;;17.60;91.60;;;17.96;84.88;100619.53;5222831;28;20501;-48
2023/07/04 01:30:20;;;;;;;3.10;1.40;;;17.60;91.60;;;17.94;85.19;100617.78;5222644;28;20059;-49
2023/07/04 01:32:55;;;;;;;2.85;1.60;;;17.60;91.70;;;17.93;85.56;100616.00;5222291;28;20501;-48
2023/07/04 01:35:29;;;;;;;5.10;1.55;;;17.60;91.80;;;17.92;85.32;100615.13;5214222;28;20132;-48
2023/07/04 01:38:01;;;;;;;4.05;1.80;;;17.60;91.80;;;17.89;85.31;100621.28;5221941;28;20055;-48
2023/07/04 01:40:36;;;;;;;5.40;2.05;;;17.60;91.80;;;17.88;85.57;100618.63;5222475;28;20047;-48
2023/07/04 01:43:10;;;;;;;6.45;1.85;;;17.60;91.90;;;17.87;85.47;100614.25;5222488;28;20059;-48
2023/07/04 01:45:45;;;;;;;4.28;1.90;;;17.50;91.90;;;17.84;85.79;100606.31;5223294;28;20048;-49
2023/07/04 01:48:18;;;;;;;3.15;1.55;;;17.50;92.00;;;17.82;85.86;100610.72;5222568;28;20580;-47
2023/07/04 01:50:50;;;;;;;7.00;2.03;;;17.50;92.10;;;17.81;86.20;100614.22;5222976;28;20518;-49
2023/07/04 01:53:22;;;;;;;4.30;1.50;;;17.50;92.20;;;17.78;86.48;100611.56;5222868;28;20506;-48
2023/07/04 01:55:55;;;;;;;3.70;1.60;;;17.40;92.30;;;17.75;86.81;100606.31;5222852;28;20056;-48
2023/07/04 01:58:29;;;;;;;4.15;1.52;;;17.40;92.50;;;17.74;86.92;100610.69;5222650;28;20176;-48
2023/07/04 02:01:01;;;;;;;4.72;1.60;;;17.40;92.60;;;17.74;86.95;100608.06;5222517;28;20052;-48
2023/07/04 02:03:34;;;;;;;4.43;1.65;;;17.40;92.60;;;17.72;87.40;100614.19;5222074;28;20789;-47
2023/07/04 02:06:07;;;;;;;4.70;1.65;;;17.40;92.80;;;17.71;87.45;100620.31;5223688;28;20053;-48
2023/07/04 02:08:40;;;;;;;5.10;1.45;;;17.40;92.90;;;17.70;87.70;100623.81;5222421;28;20148;-48
2023/07/04 02:11:15;;;;;;;4.57;1.40;;;17.40;93.00;;;17.68;87.95;100617.69;5224098;28;20544;-48
2023/07/04 02:13:49;;;;;;;5.03;1.52;;;17.30;93.10;;;17.68;88.14;100617.69;5222667;28;20122;-48
2023/07/04 02:16:21;;;;;;;3.83;1.45;;;17.40;93.20;;;17.67;88.19;100623.81;5222370;28;20047;-48
2023/07/04 02:18:54;;;;;;;4.93;1.73;;;17.30;93.30;;;17.62;88.32;100622.06;5222333;28;20106;-48
2023/07/04 02:21:27;;;;;;;2.95;1.38;;;17.30;93.70;;;17.59;88.78;100627.28;5223383;28;20402;-48
2023/07/04 02:23:59;;;;;;;3.35;1.50;;;17.30;93.50;;;17.55;89.47;100622.91;5222362;28;20045;-48
2023/07/04 02:26:32;;;;;;;4.85;1.70;;;17.30;93.80;;;17.51;89.69;100618.50;5213919;28;20056;-48
2023/07/04 02:29:09;;;;;;;3.75;1.50;;;17.20;93.90;;;17.47;90.01;100626.38;5221485;28;20509;-48
2023/07/04 02:31:42;;;;;;;3.75;1.60;;;17.20;94.10;;;17.44;90.28;100640.44;5222232;28;20051;-47
2023/07/04 02:34:14;;;;;;;3.20;1.50;;;17.10;94.20;;;17.41;90.29;100643.06;5221960;28;20164;-47
2023/07/04 02:36:47;;;;;;;5.45;1.73;;;17.10;94.40;;;17.39;90.77;100644.78;5221867;28;20735;-47
2023/07/04 02:39:26;;;;;;;3.58;1.65;;;17.10;94.60;;;17.35;91.25;100636.00;5221695;28;20556;-47
2023/07/04 02:41:58;;;;;;;4.40;2.08;;;17.00;94.80;;;17.34;91.46;100646.50;5222250;28;20132;-47
2023/07/04 02:44:34;;;;;;;2.92;1.65;;;17.00;94.90;;;17.31;91.64;100641.25;5222199;28;20068;-47
2023/07/04 02:47:10;;;;;;;4.25;1.70;;;17.00;95.00;;;17.29;92.05;100643.88;5221472;28;20045;-47
2023/07/04 02:49:45;;;;;;;6.93;1.73;;;17.00;95.20;;;17.27;92.32;100642.09;5221868;28;20065;-47
2023/07/04 02:52:18;;;;;;;5.05;1.77;;;17.00;95.40;;;17.24;92.27;100644.72;5221625;28;20053;-47
2023/07/04 02:54:51;;;;;;;5.43;1.80;;;16.90;95.40;;;17.22;92.70;100634.19;5221155;28;20428;-47
2023/07/04 02:57:25;;;;;;;5.63;1.73;;;16.90;95.60;;;17.19;92.77;100641.19;5221439;28;20441;-47
2023/07/04 02:59:59;;;;;;;3.63;1.60;;;16.90;95.70;;;17.17;93.13;100637.66;5221453;28;20049;-47
2023/07/04 03:02:33;;;;;;;6.15;2.42;;;16.90;95.90;;;17.13;93.41;100643.78;5221435;28;20064;-47
2023/07/04 03:05:07;;;;;;;4.03;1.50;;;16.80;96.00;;;17.09;93.47;100640.25;5221621;28;20049;-47
2023/07/04 03:07:40;;;;;;;;;;;16.80;96.10;;;17.04;93.90;100628.81;5221926;28;20044;-46
2023/07/04 03:10:14;;;;;;;5.35;2.00;;;16.80;96.30;;;17.02;94.22;100639.34;5221001;28;19928;-47
2023/07/04 03:12:46;;;;;;;4.07;1.63;;;16.80;96.50;;;17.00;94.55;100648.06;5221468;28;20274;-47
2023/07/04 03:15:21;;;;;;;3.40;1.67;;;16.70;96.60;;;16.97;94.38;100646.31;5221020;28;20410;-47
2023/07/04 03:17:57;;;;;;;2.90;1.45;;;16.70;96.70;;;16.97;94.56;100661.25;5221254;28;20041;-47
2023/07/04 03:20:29;;;;;;;4.93;1.83;;;16.70;96.80;;;16.95;94.43;100650.72;5220885;28;20052;-47
2023/07/04 03:23:05;;;;;;;4.57;1.70;;;16.70;96.80;;;16.93;94.88;100649.78;5221524;28;20139;-47
2023/07/04 03:25:39;;;;;;;4.10;2.00;;;16.60;96.90;;;16.90;94.88;100655.06;5213784;28;20425;-47
2023/07/04 03:28:11;;;;;;;4.78;1.70;;;16.60;97.10;;;16.88;94.95;100651.50;5220570;28;20045;-47
2023/07/04 03:30:45;;;;;;;7.13;2.03;;;16.60;97.10;;;16.88;94.89;100648.00;5221235;28;20508;-48
2023/07/04 03:33:22;;;;;;;6.38;1.90;;;16.60;97.20;;;16.86;95.38;100653.25;5220920;28;20060;-47
2023/07/04 03:35:54;;;;;;;3.65;1.70;;;16.60;97.40;;;16.86;95.44;100648.00;5221202;28;20061;-47
2023/07/04 03:38:27;;;;;;;4.22;1.80;;;16.60;97.50;;;16.86;95.38;100645.38;5220816;28;20492;-46
2023/07/04 03:41:00;;;;;;;4.18;1.65;;;16.60;97.50;;;16.85;95.42;100659.41;5221333;28;20041;-48
2023/07/04 03:43:32;;;;;;;4.07;1.65;;;16.60;97.60;;;16.84;95.47;100656.75;5220759;28;20045;-47
2023/07/04 03:46:06;;;;;;;5.10;1.73;;;16.60;97.60;;;16.84;95.37;100659.41;5221216;28;20136;-47
2023/07/04 03:48:38;;;;;;;4.05;1.73;;;16.50;97.70;;;16.83;95.54;100663.78;5212903;28;20041;-47
2023/07/04 03:51:14;;;;;;;6.35;1.90;;;16.60;97.70;;;16.84;95.37;100656.75;5220516;28;20041;-47
2023/07/04 03:53:48;;;;;;;5.35;1.63;;;16.60;97.80;;;16.83;95.57;100653.25;5221040;28;20075;-47
2023/07/04 03:56:21;;;;;;;5.00;1.63;;;16.60;97.90;;;16.84;95.69;100657.63;5220634;28;20049;-47
2023/07/04 03:58:53;;;;;;;4.63;1.63;;;16.60;98.00;;;16.85;95.46;100656.78;5220753;28;20068;-47
2023/07/04 04:01:30;;;;;;;3.28;1.73;;;16.60;98.00;;;16.83;95.41;100661.16;5220547;28;20445;-47
2023/07/04 04:04:02;;;;;;;2.40;1.35;;;16.60;98.00;;;16.84;95.70;100669.94;5221283;28;20048;-47
2023/07/04 04:06:35;;;;;;;6.22;1.67;;;16.50;98.10;;;16.83;95.79;100652.38;5222723;28;20056;-47
2023/07/04 04:09:11;;;;;;;7.22;1.80;;;16.50;98.20;;;16.82;95.84;100651.47;5224720;28;20053;-48
2023/07/04 04:11:44;;;;;;;3.90;1.52;;;16.60;98.20;;;16.83;95.73;100657.63;5225030;28;20053;-47
2023/07/04 04:14:16;;;;;;;5.75;1.98;;;16.50;98.30;;;16.83;96.02;100661.16;5224960;28;20053;-47
2023/07/04 04:16:50;;;;;;;4.72;1.95;;;16.50;98.30;;;16.83;96.06;100669.03;5225975;28;20049;-47
2023/07/04 04:19:22;;;;;;;4.80;1.80;;;16.50;98.40;;;16.86;95.67;100669.06;5224711;28;20049;-47
2023/07/04 04:21:55;;;;;;;5.05;2.00;;;16.60;98.40;;;16.88;95.95;100661.16;5224785;28;20744;-47
2023/07/04 04:24:28;;;;;;;4.07;1.70;;;16.60;98.80;;;16.92;95.40;100665.59;5224676;28;20052;-47
2023/07/04 04:27:03;;;;;;;5.28;1.85;;;16.60;98.40;;;16.93;95.49;100660.31;5224428;28;20048;-47
2023/07/04 04:29:36;;;;;;;4.55;1.60;;;16.60;98.50;;;16.96;95.68;100665.63;5224354;28;20139;-47
2023/07/04 04:32:09;;;;;;;6.15;1.85;;;16.70;98.60;;;16.98;95.76;100669.16;5224635;28;20041;-47
2023/07/04 04:34:42;;;;;;;6.82;1.80;;;16.60;98.60;;;17.01;95.75;100681.44;5216935;28;20075;-47
2023/07/04 04:37:14;;;;;;;4.45;1.63;;;16.70;98.70;;;17.03;95.71;100677.97;5224211;28;20060;-47
2023/07/04 04:39:47;;;;;;;6.28;1.70;;;16.70;98.70;;;17.03;95.84;100677.97;5224347;28;20056;-48
2023/07/04 04:42:23;;;;;;;2.65;1.60;;;16.70;98.70;;;17.07;96.03;100679.72;5224003;28;20395;-47
2023/07/04 04:44:55;;;;;;;4.50;1.30;;;16.80;98.90;;;17.10;95.87;100684.16;5224717;28;20049;-47
2023/07/04 04:47:33;;;;;;;3.70;1.73;;;16.80;98.90;;;17.13;95.68;100675.38;5223875;28;20059;-47
2023/07/04 04:50:07;;;;;;;4.18;1.50;;;16.80;98.80;;;17.16;95.80;100683.31;5224005;28;20139;-48
2023/07/04 04:52:41;;;;;;;5.93;1.70;;;16.80;98.90;;;17.20;95.23;100683.31;5223814;28;20048;-47
2023/07/04 04:55:13;;;;;;;4.35;1.60;;;16.90;98.80;;;17.27;95.20;100682.47;5223970;28;20516;-47
2023/07/04 04:57:46;;;;;;;4.13;1.58;;;16.90;98.80;;;17.36;95.51;100677.28;5224106;28;20462;-47
2023/07/04 05:00:20;;;;;;;6.32;1.88;;;17.00;98.90;;;17.50;95.41;100677.34;5223700;28;20535;-46
2023/07/04 05:02:56;;;;;;;6.25;1.95;;;17.10;99.00;;;17.62;94.61;100677.41;5224114;28;20102;-47
2023/07/04 05:05:28;;;;;;;6.63;2.10;;;17.30;98.70;;;17.73;93.26;100681.84;5223971;28;20112;-47
2023/07/04 05:08:01;;;;;;;5.07;1.52;;;17.40;98.40;;;17.82;93.10;100679.25;5223510;28;20051;-47
2023/07/04 05:10:33;;;;;;;6.35;1.83;;;17.50;98.30;;;17.93;91.96;100680.19;5223684;28;20425;-48
2023/07/04 05:13:05;;;;;;;5.40;1.88;;;17.50;97.90;;;18.03;91.17;100689.88;5223616;28;20071;-47
2023/07/04 05:15:41;;;;;;;6.57;1.75;;;17.60;97.70;;;18.11;90.33;100692.53;5223846;28;20052;-47
2023/07/04 05:18:15;;;;;;;5.85;1.98;;;17.70;97.40;;;18.17;90.74;100695.19;5222624;28;20396;-49
2023/07/04 05:20:47;;;;;;;8.50;1.98;;;17.70;97.50;;;18.29;90.68;100694.31;5212668;28;20063;-48
2023/07/04 05:23:20;;;;;;;5.45;1.63;;;17.90;97.50;;;18.41;90.61;100691.72;5221038;28;20049;-48
2023/07/04 05:26:01;;;;;;;6.75;1.80;;;18.00;97.50;;;18.58;90.06;100691.69;5224198;28;20049;-47
2023/07/04 05:28:33;;;;;;;5.30;1.30;;;18.10;97.40;;;18.72;89.55;100692.66;5224697;28;20057;-48
2023/07/04 05:31:09;;;;;;;7.22;1.70;;;18.30;97.20;;;18.84;88.70;100694.38;5224399;28;20061;-48
2023/07/04 05:33:46;;;;;;;5.88;1.85;;;18.30;96.90;;;18.96;88.20;100691.72;5224499;28;20049;-48
2023/07/04 05:36:23;;;;;;;6.22;1.73;;;18.40;96.70;;;19.08;87.89;100697.00;5223803;28;20052;-47
2023/07/04 05:38:59;;;;;;;7.93;1.90;;;18.50;96.50;;;19.24;87.75;100701.41;5223814;28;20045;-47
2023/07/04 05:41:34;;;;;;;5.40;1.85;;;18.70;96.50;;;19.45;86.84;100699.56;5223634;28;20147;-47
2023/07/04 05:44:10;;;;;;;6.35;1.85;;;18.90;96.30;;;19.58;85.30;100685.47;5223870;28;20059;-47
2023/07/04 05:46:42;;;;;;;6.88;1.70;;;19.00;95.80;;;19.69;84.72;100691.59;5223824;28;20048;-47
2023/07/04 05:49:16;;;;;;;6.10;1.98;;;19.10;95.50;;;19.86;83.73;100695.91;5223967;28;20037;-48
2023/07/04 05:51:48;;;;;;;5.57;1.55;;;19.30;95.20;;;20.03;83.31;100699.38;5223918;28;20068;-48
2023/07/04 05:54:21;;;;;;;6.15;1.58;;;19.40;94.90;;;20.24;82.64;100696.59;5223737;28;20068;-47
2023/07/04 05:56:55;;;;;;;5.90;1.88;;;19.60;94.80;;;20.43;81.65;100709.72;5223646;28;20047;-48
2023/07/04 05:59:31;;;;;;;8.88;2.05;;;19.80;94.40;;;20.64;80.79;100704.28;5223721;28;20084;-48
2023/07/04 06:02:05;;;;;;;4.35;1.38;;;20.00;94.10;;;20.89;79.92;100709.38;5223539;28;20126;-48
2023/07/04 06:04:38;;;;;;;9.23;1.92;;;20.20;93.80;;;21.10;78.89;100719.78;5223457;28;20068;-48
2023/07/04 06:07:11;;;;;;;5.65;1.77;;;20.40;93.50;;;21.31;77.40;100718.72;5223856;28;20080;-48
2023/07/04 06:09:46;;;;;;;6.75;2.15;;;20.60;92.80;;;21.39;77.37;100723.06;5223677;28;20063;-48
2023/07/04 06:12:19;;;;;;;4.60;1.58;;;20.70;92.70;;;21.56;77.24;100725.50;5223360;28;20052;-49
2023/07/04 06:14:51;;;;;;;6.03;1.55;;;20.90;92.60;;;21.73;76.85;100719.13;5223412;28;20052;-47
2023/07/04 06:17:23;;;;;;;8.13;1.58;;;21.00;92.40;;;21.81;75.60;100728.75;5223667;28;20057;-48
2023/07/04 06:19:57;;;;;;;7.40;1.70;;;21.10;91.90;;;21.99;75.38;100740.03;5223267;28;20052;-48
2023/07/04 06:22:29;;;;;;;6.28;1.73;;;21.30;91.80;;;22.06;74.20;100737.28;5223301;28;20049;-49
2023/07/04 06:25:02;;;;;;;4.95;1.63;;;21.40;91.30;;;22.19;74.00;100743.34;5223238;28;20049;-47
2023/07/04 06:27:40;;;;;;;4.90;1.65;;;21.50;91.10;;;22.31;73.14;100740.50;5223172;28;20052;-48
2023/07/04 06:30:13;;;;;;;5.25;1.25;;;21.60;90.80;;;22.44;72.51;100744.75;5222090;28;20045;-48
2023/07/04 06:32:46;;;;;;;5.70;1.60;;;21.70;90.40;;;22.57;72.31;100739.25;5223225;28;20053;-49
2023/07/04 06:35:20;;;;;;;7.60;1.95;;;21.80;90.60;;;22.70;72.41;100735.50;5222756;28;20053;-48
2023/07/04 06:37:52;;;;;;;6.60;1.65;;;21.90;90.20;;;22.86;72.73;100741.44;5222547;28;20045;-48
2023/07/04 06:40:24;;;;;;;6.75;1.77;;;22.10;90.50;;;22.80;71.29;100747.72;5222597;28;20045;-47
2023/07/04 06:42:57;;;;;;;6.32;1.95;;;22.10;89.50;;;22.52;71.54;100741.97;5222607;28;20486;-48
2023/07/04 06:45:29;;;;;;;5.90;1.65;;;21.90;89.10;;;22.46;71.96;100737.63;5224235;28;20041;-48
2023/07/04 06:48:02;;;;;;;4.93;1.83;;;21.90;89.60;;;22.56;72.35;100743.69;5222788;28;20071;-49
2023/07/04 06:50:36;;;;;;;6.07;1.70;;;21.90;90.00;;;22.77;72.04;100737.16;5222717;28;20055;-49
2023/07/04 06:53:08;;;;;;;6.63;1.60;;;22.00;89.90;;;22.91;71.27;100743.16;5222453;28;20045;-48
2023/07/04 06:55:41;;;;;;;7.25;1.80;;;22.10;89.20;;;23.12;71.34;100743.69;5222531;28;20437;-49
2023/07/04 06:58:15;;;;;;;7.45;1.90;;;22.30;89.30;;;23.34;70.70;100741.50;5222958;28;20141;-48
2023/07/04 07:00:47;;;;;;;;;;;22.50;88.70;;;23.34;69.09;100738.84;5222927;28;20580;-48
2023/07/04 07:03:19;;;;;;;6.57;1.60;;;22.60;87.20;;;23.25;69.45;100742.56;5222466;28;19920;-47
2023/07/04 07:05:57;;;;;;;4.63;1.40;;;22.60;87.10;;;23.37;69.37;100739.69;5221507;28;20045;-47
2023/07/04 07:08:30;;;;;;;6.15;1.50;;;22.60;86.80;;;23.61;69.49;100737.47;5221022;28;20036;-46
2023/07/04 07:11:05;;;;;;;7.35;1.88;;;22.80;87.30;;;23.89;67.43;100748.44;5221676;28;20056;-46
2023/07/04 07:13:41;;;;;;;3.78;1.40;;;23.00;85.60;;;24.05;66.71;100749.88;5221481;28;20045;-46
2023/07/04 07:16:16;;;;;;;5.68;2.13;;;23.10;84.70;;;24.17;66.76;100754.06;5221269;28;20041;-46
2023/07/04 07:18:50;;;;;;;5.93;1.90;;;23.30;84.40;;;24.21;65.76;100756.63;5221141;28;20060;-46
2023/07/04 07:21:26;;;;;;;7.45;1.65;;;23.40;83.50;;;24.27;65.82;100764.50;5221441;28;20049;-46
2023/07/04 07:24:02;;;;;;;5.70;1.73;;;23.40;83.20;;;24.30;65.88;100766.19;5221575;28;20753;-46
2023/07/04 07:26:34;;;;;;;5.53;1.90;;;23.40;83.00;;;24.33;66.01;100759.06;5221170;28;20103;-46
2023/07/04 07:29:07;;;;;;;4.70;1.67;;;23.50;83.10;;;24.30;65.98;100763.53;5220916;28;20052;-46
2023/07/04 07:31:42;;;;;;;4.18;1.60;;;23.50;83.00;;;24.17;66.04;100770.03;5221086;28;20049;-46
2023/07/04 07:34:15;;;;;;;5.07;1.70;;;23.40;82.70;;;24.00;66.65;100768.63;5221292;28;20395;-46
2023/07/04 07:36:48;;;;;;;5.50;1.90;;;23.20;83.00;;;24.03;66.98;100776.53;5220779;28;20045;-46
2023/07/04 07:39:21;;;;;;;3.08;1.48;;;23.20;84.30;;;24.06;66.04;100771.16;5221031;28;20037;-46
2023/07/04 07:41:53;;;;;;;5.53;1.77;;;23.20;82.70;;;24.03;65.76;100776.53;5220526;28;20414;-46
2023/07/04 07:44:26;;;;;;;3.90;1.60;;;23.20;82.40;;;24.08;65.36;100772.00;5221420;28;20060;-46
2023/07/04 07:46:58;;;;;;;5.18;1.73;;;23.20;82.10;;;24.20;65.09;100775.31;5221545;28;20036;-46
2023/07/04 07:49:30;;;;;;;3.05;1.10;;;23.20;81.60;;;24.37;64.35;100773.16;5220859;28;20048;-46
2023/07/04 07:52:05;;;;;;;5.55;2.03;;;23.40;81.60;;;24.57;63.38;100781.59;5220837;28;20052;-46
2023/07/04 07:54:38;;;;;;;4.88;1.67;;;23.50;80.60;;;24.71;62.95;100780.38;5220864;28;20059;-46
2023/07/04 07:57:10;;;;;;;5.80;1.80;;;23.70;80.00;;;24.86;62.73;100777.38;5220057;28;20048;-47
2023/07/04 07:59:42;;;;;;;3.78;1.55;;;23.80;80.00;;;24.98;62.82;100778.88;5220407;28;20045;-46
2023/07/04 08:02:15;;;;;;;5.88;1.90;;;23.90;79.70;;;25.06;62.53;100766.25;5220892;28;20052;-46
2023/07/04 08:04:48;;;;;;;3.88;1.40;;;23.90;79.30;;;25.25;62.14;100769.31;5222341;28;20045;-46
2023/07/04 08:07:21;;;;;;;4.10;1.20;;;24.10;79.10;;;25.44;61.12;100766.13;5220736;28;20063;-46
2023/07/04 08:09:54;;;;;;;5.30;1.85;;;24.20;78.20;;;25.38;60.58;100765.41;5220470;28;20033;-46
2023/07/04 08:12:26;;;;;;;5.05;2.05;;;24.20;77.40;;;25.01;61.29;100768.97;5221304;28;20056;-46
2023/07/04 08:14:59;;;;;;;7.47;1.55;;;24.00;77.60;;;24.71;61.71;100767.06;5220645;28;20056;-46
2023/07/04 08:17:31;;;;;;;7.03;1.60;;;23.70;77.70;;;24.74;62.57;100767.00;5219314;28;20045;-46
2023/07/04 08:20:08;;;;;;;3.90;1.48;;;23.70;78.60;;;25.03;62.60;100764.47;5220786;28;20127;-46
2023/07/04 08:22:42;;;;;;;5.78;1.42;;;23.70;79.20;;;24.98;62.10;100770.88;5219879;28;20106;-47
2023/07/04 08:25:15;;;;;;;7.18;1.58;;;23.70;78.80;;;25.33;61.58;100767.31;5234763;28;20494;-47
2023/07/04 08:27:50;;;;;;;4.45;1.58;;;23.80;79.50;;;26.07;59.44;100764.34;5219595;28;20052;-47
2023/07/04 08:30:23;;;;;;;6.50;1.75;;;24.10;77.80;;;26.68;57.61;100762.50;5219466;28;20048;-47
2023/07/04 08:32:55;;;;;;;5.88;1.55;;;24.50;76.50;;;26.77;56.80;100764.88;5220437;28;20045;-47
2023/07/04 08:35:28;;;;;;;4.63;1.45;;;24.60;75.40;;;27.44;55.60;100758.19;5220663;28;20052;-47
2023/07/04 08:38:01;;;;;;;5.25;1.50;;;24.90;74.80;;;28.26;54.03;100768.53;5212518;28;20045;-47
2023/07/04 08:40:34;;;;;;;3.83;1.30;;;25.40;74.10;;;29.20;51.65;100763.81;5220373;28;20406;-48
2023/07/04 08:43:07;;;;;;;4.28;1.40;;;25.80;72.00;;;30.13;49.25;100772.28;5220871;28;20041;-48
2023/07/04 08:45:49;;;;;;;4.15;1.48;;;26.40;70.40;;;31.49;46.27;100773.63;5220422;28;20049;-48
2023/07/04 08:48:24;;;;;;;6.40;1.98;;;27.30;67.30;;;32.27;44.28;100771.25;5220184;28;20068;-48
2023/07/04 08:51:02;;;;;;;5.50;1.20;;;28.10;64.20;;;32.82;42.50;100771.69;5220284;28;20044;-48
2023/07/04 08:53:38;;;;;;;3.90;1.30;;;28.80;61.50;;;33.01;41.64;100779.63;5222209;28;20041;-48
2023/07/04 08:56:21;;;;;;;5.45;1.33;;;29.20;59.60;;;33.64;40.96;100776.72;5224276;28;20052;-48
2023/07/04 08:59:05;;;;;;;3.35;1.10;;;29.80;58.40;;;34.44;40.14;100775.31;5223757;28;20045;-48
2023/07/04 09:01:53;;;;;;;2.63;1.25;;;30.40;57.20;;;35.12;38.90;100771.69;5224087;28;20172;-48
2023/07/04 09:04:37;;;;;;;3.40;1.35;;;31.10;56.50;;;35.45;38.51;100783.94;5224053;28;20056;-48
2023/07/04 09:07:19;;;;;;;6.43;1.55;;;31.50;55.20;;;35.81;37.49;100769.66;5217282;28;20045;-48
2023/07/04 09:10:13;;;;;;;2.75;1.23;;;31.80;53.90;;;35.97;37.42;100786.56;5223607;28;20631;-49
2023/07/04 09:12:46;;;;;;;3.90;1.48;;;32.00;53.70;;;36.05;36.96;100783.31;5223786;28;20067;-49
2023/07/04 09:15:31;;;;;;;3.53;1.55;;;32.10;52.80;;;35.98;36.12;100788.31;5225801;28;20055;-48
2023/07/04 09:18:21;;;;;;;6.05;1.65;;;32.10;51.70;;;36.00;35.90;100790.94;5215659;28;20770;-48
2023/07/04 09:21:00;;;;;;;4.15;1.70;;;32.10;51.30;;;35.65;35.82;100796.97;5223260;28;20139;-49
2023/07/04 09:23:33;;;;;;;4.20;1.40;;;32.00;50.80;;;35.51;36.11;100797.06;5223682;28;20114;-48
2023/07/04 09:26:13;;;;;;;4.38;1.63;;;31.80;50.60;;;35.20;36.09;100788.28;5223850;28;20529;-48
2023/07/04 09:28:48;;;;;;;4.18;1.55;;;31.70;50.60;;;34.71;37.00;100791.56;5223492;28;20064;-48
2023/07/04 09:31:24;;;;;;;4.10;1.85;;;31.50;50.70;;;34.13;37.69;100792.63;5223417;28;20561;-48
2023/07/04 09:34:08;;;;;;;4.57;1.70;;;31.30;51.20;;;33.15;38.63;100798.59;5223279;28;20041;-48
2023/07/04 09:36:41;;;;;;;4.05;1.55;;;30.80;51.40;;;32.40;39.95;100788.50;5223128;28;20046;-47
2023/07/04 09:39:13;;;;;;;3.58;1.60;;;30.30;52.20;;;31.91;41.70;100783.09;5223253;28;20048;-48
2023/07/04 09:41:59;;;;;;;5.85;2.00;;;30.00;53.30;;;31.24;42.48;100783.94;5223156;28;20094;-48
2023/07/04 09:44:36;;;;;;;5.50;2.00;;;29.70;53.60;;;30.42;43.72;100781.66;5223474;28;20401;-47
2023/07/04 09:47:25;;;;;;;3.58;1.40;;;29.20;54.30;;;29.62;44.56;100783.56;5215843;28;20460;-47
2023/07/04 09:50:12;;;;;;;6.32;1.92;;;28.60;54.60;;;29.29;45.32;100786.75;5222640;28;20037;-47
2023/07/04 09:52:44;;;;;;;3.70;1.60;;;28.30;55.30;;;29.18;45.97;100783.63;5222995;28;20053;-47
2023/07/04 09:55:27;;;;;;;4.88;2.00;;;28.10;56.00;;;29.08;45.38;100785.84;5223104;28;20067;-47
2023/07/04 09:58:19;;;;;;;3.80;1.85;;;28.00;55.70;;;28.90;46.82;100781.22;5222684;28;20059;-47
2023/07/04 10:01:08;;;;;;;4.20;2.00;;;27.80;56.70;;;28.64;47.69;100784.94;5222784;28;20425;-47
2023/07/04 10:03:42;;;;;;;6.82;2.13;;;27.70;57.40;;;28.43;47.65;100786.69;5222601;28;20453;-47
2023/07/04 10:06:32;;;;;;;4.75;2.00;;;27.50;57.60;;;28.21;48.60;100791.09;5222998;28;20045;-47
2023/07/04 10:09:17;;;;;;;4.78;2.28;;;27.30;58.10;;;28.12;49.08;100784.28;5222274;28;20098;-47
2023/07/04 10:11:52;;;;;;;5.32;1.90;;;27.20;58.70;;;28.14;48.92;100777.03;5222560;28;20049;-47
2023/07/04 10:14:37;;;;;;;7.40;2.30;;;27.20;58.50;;;27.95;48.83;100781.34;5222716;28;20048;-46
2023/07/04 10:17:15;;;;;;;5.97;2.25;;;27.00;58.50;;;27.71;49.44;100770.63;5214558;28;20044;-47
2023/07/04 10:19:51;;;;;;;5.82;1.90;;;26.80;58.90;;;27.72;49.88;100772.38;5221838;28;20526;-47
2023/07/04 10:22:32;;;;;;;5.93;2.28;;;26.80;59.80;;;27.62;50.04;100776.25;5222253;28;20510;-47
2023/07/04 10:25:11;;;;;;;4.95;2.33;;;26.70;59.50;;;27.62;50.66;100760.19;5222204;28;20053;-46
2023/07/04 10:27:47;;;;;;;6.15;2.22;;;26.70;60.10;;;27.69;50.80;100764.44;5221957;28;20410;-47
2023/07/04 10:30:25;;;;;;;5.35;2.13;;;26.70;60.30;;;27.87;50.32;100753.97;5220391;28;20052;-47
2023/07/04 10:33:03;;;;;;;5.30;2.00;;;26.80;60.10;;;27.96;49.93;100756.31;5233827;28;20049;-48
2023/07/04 10:35:39;;;;;;;7.13;2.35;;;26.90;59.70;;;28.12;50.76;100760.16;5222541;28;20076;-48
2023/07/04 10:38:34;;;;;;;5.15;2.30;;;27.00;60.40;;;28.24;49.39;100757.00;5221471;28;20049;-47
2023/07/04 10:41:19;;;;;;;5.78;2.30;;;27.20;59.40;;;28.22;50.03;100756.19;5221389;28;20096;-47
2023/07/04 10:43:57;;;;;;;4.60;2.40;;;27.20;59.70;;;28.20;49.60;100752.69;5221357;28;20048;-47
2023/07/04 10:46:46;;;;;;;5.15;2.30;;;27.20;59.30;;;28.21;49.73;100748.19;5221600;28;20049;-46